sensor_id;sensor_type;location;lat;lon;timestamp;temperature;humidity
69324;DHT22;56470;47.350;8.718;2023-07-24T00:01:48;24.11;56.12
69324;DHT22;56470;47.350;8.718;2023-07-24T00:04:13;24.00;55.87
69324;DHT22;56470;47.350;8.718;2023-07-24T00:06:38;23.82;55.55
69324;DHT22;56470;47.350;8.718;2023-07-24T00:09:04;23.64;55.45
69324;DHT22;56470;47.350;8.718;2023-07-24T00:11:29;23.57;55.45
69324;DHT22;56470;47.350;8.718;2023-07-24T00:13:55;23.54;55.63
69324;DHT22;56470;47.350;8.718;2023-07-24T00:16:20;23.64;55.95
69324;DHT22;56470;47.350;8.718;2023-07-24T00:18:45;23.61;55.96
69324;DHT22;56470;47.350;8.718;2023-07-24T00:21:11;23.60;56.03
69324;DHT22;56470;47.350;8.718;2023-07-24T00:23:38;23.56;56.40
69324;DHT22;56470;47.350;8.718;2023-07-24T00:26:03;23.43;56.67
69324;DHT22;56470;47.350;8.718;2023-07-24T00:28:28;23.22;56.81
69324;DHT22;56470;47.350;8.718;2023-07-24T00:30:54;23.01;57.28
69324;DHT22;56470;47.350;8.718;2023-07-24T00:33:21;22.95;56.99
69324;DHT22;56470;47.350;8.718;2023-07-24T00:35:46;23.01;57.27
69324;DHT22;56470;47.350;8.718;2023-07-24T00:38:11;23.09;57.23
69324;DHT22;56470;47.350;8.718;2023-07-24T00:40:37;23.18;56.89
69324;DHT22;56470;47.350;8.718;2023-07-24T00:43:02;23.20;56.97
69324;DHT22;56470;47.350;8.718;2023-07-24T00:45:27;23.24;56.93
69324;DHT22;56470;47.350;8.718;2023-07-24T00:47:53;23.30;57.06
69324;DHT22;56470;47.350;8.718;2023-07-24T00:50:19;23.45;57.32
69324;DHT22;56470;47.350;8.718;2023-07-24T00:52:44;23.54;57.56
69324;DHT22;56470;47.350;8.718;2023-07-24T00:55:11;23.58;57.48
69324;DHT22;56470;47.350;8.718;2023-07-24T00:57:37;23.77;57.99
69324;DHT22;56470;47.350;8.718;2023-07-24T01:00:03;23.95;58.73
69324;DHT22;56470;47.350;8.718;2023-07-24T01:02:29;24.06;58.53
69324;DHT22;56470;47.350;8.718;2023-07-24T01:04:55;24.13;58.14
69324;DHT22;56470;47.350;8.718;2023-07-24T01:07:20;24.16;58.09
69324;DHT22;56470;47.350;8.718;2023-07-24T01:09:46;24.22;57.66
69324;DHT22;56470;47.350;8.718;2023-07-24T01:12:31;24.29;57.92
69324;DHT22;56470;47.350;8.718;2023-07-24T01:17:29;24.32;57.56
69324;DHT22;56470;47.350;8.718;2023-07-24T01:19:58;24.01;57.99
69324;DHT22;56470;47.350;8.718;2023-07-24T01:22:38;23.66;59.75
69324;DHT22;56470;47.350;8.718;2023-07-24T01:25:18;23.45;60.90
69324;DHT22;56470;47.350;8.718;2023-07-24T01:27:48;23.26;59.42
69324;DHT22;56470;47.350;8.718;2023-07-24T01:30:19;23.12;59.86
69324;DHT22;56470;47.350;8.718;2023-07-24T01:32:45;23.09;60.11
69324;DHT22;56470;47.350;8.718;2023-07-24T01:35:11;23.06;60.30
69324;DHT22;56470;47.350;8.718;2023-07-24T01:37:37;22.90;60.51
69324;DHT22;56470;47.350;8.718;2023-07-24T01:40:08;22.79;60.74
69324;DHT22;56470;47.350;8.718;2023-07-24T01:42:34;22.75;60.90
69324;DHT22;56470;47.350;8.718;2023-07-24T01:45:02;22.74;60.98
69324;DHT22;56470;47.350;8.718;2023-07-24T01:47:27;22.74;60.96
69324;DHT22;56470;47.350;8.718;2023-07-24T01:49:53;22.64;61.14
69324;DHT22;56470;47.350;8.718;2023-07-24T01:52:18;22.50;61.37
69324;DHT22;56470;47.350;8.718;2023-07-24T01:54:44;22.47;61.58
69324;DHT22;56470;47.350;8.718;2023-07-24T01:57:09;22.51;61.68
69324;DHT22;56470;47.350;8.718;2023-07-24T01:59:34;22.47;61.73
69324;DHT22;56470;47.350;8.718;2023-07-24T02:02:00;22.49;61.84
69324;DHT22;56470;47.350;8.718;2023-07-24T02:04:25;22.53;61.84
69324;DHT22;56470;47.350;8.718;2023-07-24T02:06:51;22.61;61.84
69324;DHT22;56470;47.350;8.718;2023-07-24T02:09:19;22.68;61.90
69324;DHT22;56470;47.350;8.718;2023-07-24T02:11:44;22.78;61.81
69324;DHT22;56470;47.350;8.718;2023-07-24T02:14:12;22.85;61.60
69324;DHT22;56470;47.350;8.718;2023-07-24T02:16:37;22.90;61.57
69324;DHT22;56470;47.350;8.718;2023-07-24T02:19:02;22.95;61.48
69324;DHT22;56470;47.350;8.718;2023-07-24T02:21:28;22.99;61.44
69324;DHT22;56470;47.350;8.718;2023-07-24T02:23:53;22.96;61.60
69324;DHT22;56470;47.350;8.718;2023-07-24T02:26:18;22.95;61.72
69324;DHT22;56470;47.350;8.718;2023-07-24T02:28:44;22.77;61.59
69324;DHT22;56470;47.350;8.718;2023-07-24T02:31:09;22.60;61.74
69324;DHT22;56470;47.350;8.718;2023-07-24T02:33:34;22.47;61.70
69324;DHT22;56470;47.350;8.718;2023-07-24T02:36:00;22.30;61.86
69324;DHT22;56470;47.350;8.718;2023-07-24T02:38:26;22.22;61.98
69324;DHT22;56470;47.350;8.718;2023-07-24T02:40:51;22.23;61.96
69324;DHT22;56470;47.350;8.718;2023-07-24T02:43:16;22.26;61.90
69324;DHT22;56470;47.350;8.718;2023-07-24T02:45:42;22.30;61.71
69324;DHT22;56470;47.350;8.718;2023-07-24T02:48:07;22.33;61.30
69324;DHT22;56470;47.350;8.718;2023-07-24T02:50:33;22.39;61.45
69324;DHT22;56470;47.350;8.718;2023-07-24T02:52:58;22.50;61.62
69324;DHT22;56470;47.350;8.718;2023-07-24T02:55:23;22.75;61.65
69324;DHT22;56470;47.350;8.718;2023-07-24T02:57:50;22.92;61.65
69324;DHT22;56470;47.350;8.718;2023-07-24T03:00:15;22.99;61.79
69324;DHT22;56470;47.350;8.718;2023-07-24T03:02:42;23.05;61.90
69324;DHT22;56470;47.350;8.718;2023-07-24T03:05:07;23.11;61.99
69324;DHT22;56470;47.350;8.718;2023-07-24T03:07:33;23.09;61.98
69324;DHT22;56470;47.350;8.718;2023-07-24T03:09:58;23.02;62.15
69324;DHT22;56470;47.350;8.718;2023-07-24T03:12:24;22.99;62.26
69324;DHT22;56470;47.350;8.718;2023-07-24T03:14:49;23.08;62.27
69324;DHT22;56470;47.350;8.718;2023-07-24T03:17:15;23.32;61.97
69324;DHT22;56470;47.350;8.718;2023-07-24T03:19:41;23.54;61.52
69324;DHT22;56470;47.350;8.718;2023-07-24T03:22:06;23.70;61.15
69324;DHT22;56470;47.350;8.718;2023-07-24T03:24:31;23.86;60.86
69324;DHT22;56470;47.350;8.718;2023-07-24T03:26:57;24.01;60.55
69324;DHT22;56470;47.350;8.718;2023-07-24T03:29:22;24.11;60.29
69324;DHT22;56470;47.350;8.718;2023-07-24T03:31:47;24.12;60.17
69324;DHT22;56470;47.350;8.718;2023-07-24T03:34:13;24.09;60.23
69324;DHT22;56470;47.350;8.718;2023-07-24T03:36:38;24.08;60.35
69324;DHT22;56470;47.350;8.718;2023-07-24T03:39:06;24.18;60.24
69324;DHT22;56470;47.350;8.718;2023-07-24T03:41:32;24.20;60.04
69324;DHT22;56470;47.350;8.718;2023-07-24T03:43:57;24.12;59.88
69324;DHT22;56470;47.350;8.718;2023-07-24T03:46:22;23.88;59.96
69324;DHT22;56470;47.350;8.718;2023-07-24T03:48:48;23.66;60.44
69324;DHT22;56470;47.350;8.718;2023-07-24T03:51:15;23.42;60.80
69324;DHT22;56470;47.350;8.718;2023-07-24T03:53:40;23.12;61.20
69324;DHT22;56470;47.350;8.718;2023-07-24T03:56:05;22.96;61.68
69324;DHT22;56470;47.350;8.718;2023-07-24T03:58:31;22.88;61.97
69324;DHT22;56470;47.350;8.718;2023-07-24T04:00:56;22.81;62.27
69324;DHT22;56470;47.350;8.718;2023-07-24T04:03:21;22.74;62.62
69324;DHT22;56470;47.350;8.718;2023-07-24T04:05:46;22.75;62.85
69324;DHT22;56470;47.350;8.718;2023-07-24T04:08:12;22.75;62.86
69324;DHT22;56470;47.350;8.718;2023-07-24T04:10:37;22.71;63.11
69324;DHT22;56470;47.350;8.718;2023-07-24T04:13:02;22.65;63.10
69324;DHT22;56470;47.350;8.718;2023-07-24T04:15:28;22.56;63.01
69324;DHT22;56470;47.350;8.718;2023-07-24T04:17:53;22.46;63.06
69324;DHT22;56470;47.350;8.718;2023-07-24T04:20:18;22.32;63.12
69324;DHT22;56470;47.350;8.718;2023-07-24T04:22:43;22.20;63.41
69324;DHT22;56470;47.350;8.718;2023-07-24T04:25:09;22.15;63.51
69324;DHT22;56470;47.350;8.718;2023-07-24T04:27:34;22.09;63.63
69324;DHT22;56470;47.350;8.718;2023-07-24T04:29:59;22.04;63.69
69324;DHT22;56470;47.350;8.718;2023-07-24T04:32:26;22.02;63.83
69324;DHT22;56470;47.350;8.718;2023-07-24T04:34:52;22.05;63.81
69324;DHT22;56470;47.350;8.718;2023-07-24T04:37:18;22.08;63.92
69324;DHT22;56470;47.350;8.718;2023-07-24T04:39:43;22.06;63.69
69324;DHT22;56470;47.350;8.718;2023-07-24T04:42:08;22.05;63.81
69324;DHT22;56470;47.350;8.718;2023-07-24T04:44:34;21.98;64.34
69324;DHT22;56470;47.350;8.718;2023-07-24T04:46:59;21.92;64.38
69324;DHT22;56470;47.350;8.718;2023-07-24T04:49:24;21.81;64.92
69324;DHT22;56470;47.350;8.718;2023-07-24T04:51:50;21.82;65.83
69324;DHT22;56470;47.350;8.718;2023-07-24T04:54:17;21.95;65.57
69324;DHT22;56470;47.350;8.718;2023-07-24T04:56:42;22.20;65.61
69324;DHT22;56470;47.350;8.718;2023-07-24T04:59:08;22.33;65.93
69324;DHT22;56470;47.350;8.718;2023-07-24T05:01:33;22.30;66.16
69324;DHT22;56470;47.350;8.718;2023-07-24T05:03:58;22.13;67.05
69324;DHT22;56470;47.350;8.718;2023-07-24T05:06:23;21.84;67.94
69324;DHT22;56470;47.350;8.718;2023-07-24T05:08:49;21.58;68.84
69324;DHT22;56470;47.350;8.718;2023-07-24T05:11:14;21.32;69.53
69324;DHT22;56470;47.350;8.718;2023-07-24T05:13:39;21.16;70.39
69324;DHT22;56470;47.350;8.718;2023-07-24T05:16:05;21.10;70.85
69324;DHT22;56470;47.350;8.718;2023-07-24T05:18:30;21.08;71.13
69324;DHT22;56470;47.350;8.718;2023-07-24T05:20:55;21.18;71.04
69324;DHT22;56470;47.350;8.718;2023-07-24T05:23:21;21.26;70.59
69324;DHT22;56470;47.350;8.718;2023-07-24T05:25:46;21.33;70.62
69324;DHT22;56470;47.350;8.718;2023-07-24T05:28:11;21.37;70.46
69324;DHT22;56470;47.350;8.718;2023-07-24T05:30:37;21.39;70.51
69324;DHT22;56470;47.350;8.718;2023-07-24T05:33:02;21.37;70.61
69324;DHT22;56470;47.350;8.718;2023-07-24T05:35:27;21.43;70.60
69324;DHT22;56470;47.350;8.718;2023-07-24T05:37:53;21.49;70.70
69324;DHT22;56470;47.350;8.718;2023-07-24T05:40:18;21.57;70.74
69324;DHT22;56470;47.350;8.718;2023-07-24T05:42:43;21.68;70.53
69324;DHT22;56470;47.350;8.718;2023-07-24T05:45:09;21.75;70.14
69324;DHT22;56470;47.350;8.718;2023-07-24T05:47:36;21.78;69.93
69324;DHT22;56470;47.350;8.718;2023-07-24T05:50:02;21.75;69.93
69324;DHT22;56470;47.350;8.718;2023-07-24T05:52:27;21.39;71.31
69324;DHT22;56470;47.350;8.718;2023-07-24T05:54:53;20.84;73.81
69324;DHT22;56470;47.350;8.718;2023-07-24T05:57:19;20.56;73.91
69324;DHT22;56470;47.350;8.718;2023-07-24T05:59:44;20.28;75.54
69324;DHT22;56470;47.350;8.718;2023-07-24T06:02:09;20.18;75.18
69324;DHT22;56470;47.350;8.718;2023-07-24T06:04:35;20.25;74.30
69324;DHT22;56470;47.350;8.718;2023-07-24T06:07:01;20.40;73.77
69324;DHT22;56470;47.350;8.718;2023-07-24T06:09:26;20.64;73.83
69324;DHT22;56470;47.350;8.718;2023-07-24T06:11:51;20.82;73.65
69324;DHT22;56470;47.350;8.718;2023-07-24T06:14:16;21.01;73.42
69324;DHT22;56470;47.350;8.718;2023-07-24T06:16:42;21.20;73.12
69324;DHT22;56470;47.350;8.718;2023-07-24T06:19:07;21.33;72.32
69324;DHT22;56470;47.350;8.718;2023-07-24T06:21:32;21.36;72.12
69324;DHT22;56470;47.350;8.718;2023-07-24T06:23:58;21.43;71.98
69324;DHT22;56470;47.350;8.718;2023-07-24T06:26:23;21.53;71.58
69324;DHT22;56470;47.350;8.718;2023-07-24T06:28:48;21.71;71.41
69324;DHT22;56470;47.350;8.718;2023-07-24T06:31:13;21.82;71.16
69324;DHT22;56470;47.350;8.718;2023-07-24T06:33:39;21.89;70.91
69324;DHT22;56470;47.350;8.718;2023-07-24T06:36:08;21.95;70.82
69324;DHT22;56470;47.350;8.718;2023-07-24T06:38:34;22.05;70.86
69324;DHT22;56470;47.350;8.718;2023-07-24T06:40:59;22.12;70.59
69324;DHT22;56470;47.350;8.718;2023-07-24T06:43:24;22.16;70.50
69324;DHT22;56470;47.350;8.718;2023-07-24T06:45:50;22.22;70.57
69324;DHT22;56470;47.350;8.718;2023-07-24T06:48:15;22.29;70.37
69324;DHT22;56470;47.350;8.718;2023-07-24T06:50:40;22.35;70.28
69324;DHT22;56470;47.350;8.718;2023-07-24T06:53:05;22.39;70.10
69324;DHT22;56470;47.350;8.718;2023-07-24T06:55:31;22.40;69.87
69324;DHT22;56470;47.350;8.718;2023-07-24T06:57:56;22.40;69.78
69324;DHT22;56470;47.350;8.718;2023-07-24T07:00:21;22.37;69.88
69324;DHT22;56470;47.350;8.718;2023-07-24T07:02:46;22.29;69.76
69324;DHT22;56470;47.350;8.718;2023-07-24T07:05:12;22.10;69.88
69324;DHT22;56470;47.350;8.718;2023-07-24T07:07:37;21.98;70.36
69324;DHT22;56470;47.350;8.718;2023-07-24T07:10:03;21.87;70.64
69324;DHT22;56470;47.350;8.718;2023-07-24T07:12:28;21.85;70.93
69324;DHT22;56470;47.350;8.718;2023-07-24T07:14:53;21.88;71.25
69324;DHT22;56470;47.350;8.718;2023-07-24T07:17:19;21.94;71.20
69324;DHT22;56470;47.350;8.718;2023-07-24T07:19:44;22.04;71.29
69324;DHT22;56470;47.350;8.718;2023-07-24T07:22:09;22.16;71.22
69324;DHT22;56470;47.350;8.718;2023-07-24T07:24:35;22.25;71.05
69324;DHT22;56470;47.350;8.718;2023-07-24T07:27:00;22.32;71.03
69324;DHT22;56470;47.350;8.718;2023-07-24T07:29:25;22.39;70.88
69324;DHT22;56470;47.350;8.718;2023-07-24T07:31:50;22.44;70.80
69324;DHT22;56470;47.350;8.718;2023-07-24T07:34:16;22.49;70.79
69324;DHT22;56470;47.350;8.718;2023-07-24T07:36:41;22.56;70.71
69324;DHT22;56470;47.350;8.718;2023-07-24T07:39:06;22.56;70.53
69324;DHT22;56470;47.350;8.718;2023-07-24T07:41:32;22.57;70.50
69324;DHT22;56470;47.350;8.718;2023-07-24T07:43:57;22.57;70.37
69324;DHT22;56470;47.350;8.718;2023-07-24T07:46:23;22.60;70.51
69324;DHT22;56470;47.350;8.718;2023-07-24T07:48:48;22.64;70.50
69324;DHT22;56470;47.350;8.718;2023-07-24T07:51:14;22.63;70.46
69324;DHT22;56470;47.350;8.718;2023-07-24T07:53:39;22.61;70.50
69324;DHT22;56470;47.350;8.718;2023-07-24T07:56:05;22.67;70.42
69324;DHT22;56470;47.350;8.718;2023-07-24T07:58:30;22.70;70.41
69324;DHT22;56470;47.350;8.718;2023-07-24T08:00:55;22.74;70.30
69324;DHT22;56470;47.350;8.718;2023-07-24T08:03:21;22.74;70.14
69324;DHT22;56470;47.350;8.718;2023-07-24T08:05:47;22.74;69.99
69324;DHT22;56470;47.350;8.718;2023-07-24T08:08:12;22.63;69.70
69324;DHT22;56470;47.350;8.718;2023-07-24T08:10:38;22.51;69.98
69324;DHT22;56470;47.350;8.718;2023-07-24T08:13:03;22.50;70.18
69324;DHT22;56470;47.350;8.718;2023-07-24T08:15:29;22.53;70.21
69324;DHT22;56470;47.350;8.718;2023-07-24T08:17:54;22.47;70.38
69324;DHT22;56470;47.350;8.718;2023-07-24T08:20:19;22.36;70.74
69324;DHT22;56470;47.350;8.718;2023-07-24T08:22:44;22.25;71.06
69324;DHT22;56470;47.350;8.718;2023-07-24T08:25:10;22.20;71.14
69324;DHT22;56470;47.350;8.718;2023-07-24T08:27:35;22.26;71.47
69324;DHT22;56470;47.350;8.718;2023-07-24T08:30:00;22.43;71.58
69324;DHT22;56470;47.350;8.718;2023-07-24T08:32:26;22.51;71.25
69324;DHT22;56470;47.350;8.718;2023-07-24T08:34:51;22.61;70.86
69324;DHT22;56470;47.350;8.718;2023-07-24T08:37:16;22.68;70.61
69324;DHT22;56470;47.350;8.718;2023-07-24T08:39:41;22.78;70.20
69324;DHT22;56470;47.350;8.718;2023-07-24T08:42:13;22.85;70.07
69324;DHT22;56470;47.350;8.718;2023-07-24T08:44:39;23.02;70.13
69324;DHT22;56470;47.350;8.718;2023-07-24T08:47:06;23.18;70.01
69324;DHT22;56470;47.350;8.718;2023-07-24T08:49:34;23.38;69.75
69324;DHT22;56470;47.350;8.718;2023-07-24T08:52:02;23.60;69.37
69324;DHT22;56470;47.350;8.718;2023-07-24T08:54:30;23.84;69.27
69324;DHT22;56470;47.350;8.718;2023-07-24T08:56:55;24.15;68.80
69324;DHT22;56470;47.350;8.718;2023-07-24T08:59:21;24.47;68.09
69324;DHT22;56470;47.350;8.718;2023-07-24T09:01:46;24.81;67.35
69324;DHT22;56470;47.350;8.718;2023-07-24T09:04:11;25.04;66.67
69324;DHT22;56470;47.350;8.718;2023-07-24T09:06:37;25.23;66.07
69324;DHT22;56470;47.350;8.718;2023-07-24T09:09:02;25.44;65.82
69324;DHT22;56470;47.350;8.718;2023-07-24T09:11:51;25.71;65.05
69324;DHT22;56470;47.350;8.718;2023-07-24T09:16:46;26.14;64.09
69324;DHT22;56470;47.350;8.718;2023-07-24T09:19:18;26.21;63.33
69324;DHT22;56470;47.350;8.718;2023-07-24T09:21:44;26.29;63.24
69324;DHT22;56470;47.350;8.718;2023-07-24T09:24:13;26.28;62.81
69324;DHT22;56470;47.350;8.718;2023-07-24T09:26:52;26.22;62.25
69324;DHT22;56470;47.350;8.718;2023-07-24T09:29:18;26.32;62.75
69324;DHT22;56470;47.350;8.718;2023-07-24T09:31:44;26.39;62.84
69324;DHT22;56470;47.350;8.718;2023-07-24T09:34:18;26.59;62.03
69324;DHT22;56470;47.350;8.718;2023-07-24T09:36:43;26.73;62.22
69324;DHT22;56470;47.350;8.718;2023-07-24T09:39:10;26.90;61.67
69324;DHT22;56470;47.350;8.718;2023-07-24T09:41:36;26.99;61.07
69324;DHT22;56470;47.350;8.718;2023-07-24T09:44:02;26.94;60.77
69324;DHT22;56470;47.350;8.718;2023-07-24T09:46:27;26.81;60.62
69324;DHT22;56470;47.350;8.718;2023-07-24T09:48:55;26.67;60.85
69324;DHT22;56470;47.350;8.718;2023-07-24T09:51:21;26.63;61.04
69324;DHT22;56470;47.350;8.718;2023-07-24T09:54:03;26.50;61.01
69324;DHT22;56470;47.350;8.718;2023-07-24T09:56:32;26.43;61.19
69324;DHT22;56470;47.350;8.718;2023-07-24T09:58:58;26.39;61.20
69324;DHT22;56470;47.350;8.718;2023-07-24T10:01:25;26.35;61.21
69324;DHT22;56470;47.350;8.718;2023-07-24T10:03:51;26.29;61.36
69324;DHT22;56470;47.350;8.718;2023-07-24T10:06:17;26.28;61.32
69324;DHT22;56470;47.350;8.718;2023-07-24T10:08:43;26.21;61.33
69324;DHT22;56470;47.350;8.718;2023-07-24T10:11:11;26.16;61.41
69324;DHT22;56470;47.350;8.718;2023-07-24T10:13:36;26.06;61.70
69324;DHT22;56470;47.350;8.718;2023-07-24T10:16:03;25.94;61.90
69324;DHT22;56470;47.350;8.718;2023-07-24T10:18:32;25.81;62.03
69324;DHT22;56470;47.350;8.718;2023-07-24T10:21:05;25.73;62.33
69324;DHT22;56470;47.350;8.718;2023-07-24T10:23:33;25.66;62.63
69324;DHT22;56470;47.350;8.718;2023-07-24T10:26:03;25.57;63.01
69324;DHT22;56470;47.350;8.718;2023-07-24T10:28:34;25.53;63.16
69324;DHT22;56470;47.350;8.718;2023-07-24T10:31:00;25.47;63.41
69324;DHT22;56470;47.350;8.718;2023-07-24T10:33:29;25.49;63.59
69324;DHT22;56470;47.350;8.718;2023-07-24T10:36:05;25.53;63.69
69324;DHT22;56470;47.350;8.718;2023-07-24T10:38:35;25.56;63.24
69324;DHT22;56470;47.350;8.718;2023-07-24T10:41:02;25.57;63.09
69324;DHT22;56470;47.350;8.718;2023-07-24T10:43:49;25.56;62.84
69324;DHT22;56470;47.350;8.718;2023-07-24T10:46:15;25.53;62.69
69324;DHT22;56470;47.350;8.718;2023-07-24T10:48:46;25.49;62.42
69324;DHT22;56470;47.350;8.718;2023-07-24T10:51:12;25.43;62.35
69324;DHT22;56470;47.350;8.718;2023-07-24T10:53:42;25.37;62.22
69324;DHT22;56470;47.350;8.718;2023-07-24T10:56:07;25.32;62.22
69324;DHT22;56470;47.350;8.718;2023-07-24T10:58:33;25.30;62.28
69324;DHT22;56470;47.350;8.718;2023-07-24T11:01:03;25.32;62.17
69324;DHT22;56470;47.350;8.718;2023-07-24T11:03:30;25.32;62.17
69324;DHT22;56470;47.350;8.718;2023-07-24T11:05:56;25.30;62.18
69324;DHT22;56470;47.350;8.718;2023-07-24T11:08:22;25.29;62.12
69324;DHT22;56470;47.350;8.718;2023-07-24T11:10:52;25.27;62.11
69324;DHT22;56470;47.350;8.718;2023-07-24T11:13:19;25.26;62.21
69324;DHT22;56470;47.350;8.718;2023-07-24T11:15:46;25.19;62.28
69324;DHT22;56470;47.350;8.718;2023-07-24T11:18:11;25.14;62.44
69324;DHT22;56470;47.350;8.718;2023-07-24T11:20:43;24.99;62.35
69324;DHT22;56470;47.350;8.718;2023-07-24T11:23:09;24.65;62.40
69324;DHT22;56470;47.350;8.718;2023-07-24T11:25:35;24.37;62.39
69324;DHT22;56470;47.350;8.718;2023-07-24T11:28:00;24.23;62.51
69324;DHT22;56470;47.350;8.718;2023-07-24T11:30:26;24.18;62.61
69324;DHT22;56470;47.350;8.718;2023-07-24T11:32:51;24.09;62.16
69324;DHT22;56470;47.350;8.718;2023-07-24T11:35:17;23.86;62.10
69324;DHT22;56470;47.350;8.718;2023-07-24T11:37:42;23.73;62.34
69324;DHT22;56470;47.350;8.718;2023-07-24T11:40:08;23.67;62.88
69324;DHT22;56470;47.350;8.718;2023-07-24T11:42:39;23.73;63.10
69324;DHT22;56470;47.350;8.718;2023-07-24T11:45:06;23.79;63.09
69324;DHT22;56470;47.350;8.718;2023-07-24T11:47:49;23.88;62.97
69324;DHT22;56470;47.350;8.718;2023-07-24T11:50:16;23.85;62.75
69324;DHT22;56470;47.350;8.718;2023-07-24T11:52:43;23.84;62.98
69324;DHT22;56470;47.350;8.718;2023-07-24T11:55:14;23.82;62.89
69324;DHT22;56470;47.350;8.718;2023-07-24T11:57:39;23.84;62.80
69324;DHT22;56470;47.350;8.718;2023-07-24T12:00:16;23.86;62.81
69324;DHT22;56470;47.350;8.718;2023-07-24T12:02:42;23.94;62.77
69324;DHT22;56470;47.350;8.718;2023-07-24T12:05:09;24.00;62.69
69324;DHT22;56470;47.350;8.718;2023-07-24T12:07:35;24.11;62.56
69324;DHT22;56470;47.350;8.718;2023-07-24T12:10:03;24.12;62.19
69324;DHT22;56470;47.350;8.718;2023-07-24T12:12:46;24.12;62.06
69324;DHT22;56470;47.350;8.718;2023-07-24T12:15:12;24.19;62.28
69324;DHT22;56470;47.350;8.718;2023-07-24T12:17:38;24.25;62.30
69324;DHT22;56470;47.350;8.718;2023-07-24T12:20:04;24.28;62.21
69324;DHT22;56470;47.350;8.718;2023-07-24T12:22:33;24.35;62.23
69324;DHT22;56470;47.350;8.718;2023-07-24T12:24:59;24.46;62.12
69324;DHT22;56470;47.350;8.718;2023-07-24T12:27:24;24.47;61.84
69324;DHT22;56470;47.350;8.718;2023-07-24T12:29:51;24.50;61.79
69324;DHT22;56470;47.350;8.718;2023-07-24T12:32:16;24.56;61.76
69324;DHT22;56470;47.350;8.718;2023-07-24T12:34:41;24.63;61.37
69324;DHT22;56470;47.350;8.718;2023-07-24T12:37:07;24.64;61.39
69324;DHT22;56470;47.350;8.718;2023-07-24T12:39:32;24.68;61.44
69324;DHT22;56470;47.350;8.718;2023-07-24T12:41:57;24.71;61.50
69324;DHT22;56470;47.350;8.718;2023-07-24T12:44:22;24.71;61.59
69324;DHT22;56470;47.350;8.718;2023-07-24T12:46:48;24.68;61.54
69324;DHT22;56470;47.350;8.718;2023-07-24T12:49:13;24.70;61.17
69324;DHT22;56470;47.350;8.718;2023-07-24T12:51:39;24.63;60.83
69324;DHT22;56470;47.350;8.718;2023-07-24T12:54:04;24.50;60.82
69324;DHT22;56470;47.350;8.718;2023-07-24T12:56:29;24.40;60.94
69324;DHT22;56470;47.350;8.718;2023-07-24T12:58:55;24.36;60.94
69324;DHT22;56470;47.350;8.718;2023-07-24T13:01:20;24.39;61.03
69324;DHT22;56470;47.350;8.718;2023-07-24T13:03:45;24.35;60.99
69324;DHT22;56470;47.350;8.718;2023-07-24T13:06:10;24.36;61.27
69324;DHT22;56470;47.350;8.718;2023-07-24T13:08:36;24.35;61.27
69324;DHT22;56470;47.350;8.718;2023-07-24T13:11:01;24.37;61.32
69324;DHT22;56470;47.350;8.718;2023-07-24T13:13:26;24.40;61.43
69324;DHT22;56470;47.350;8.718;2023-07-24T13:15:52;24.44;61.76
69324;DHT22;56470;47.350;8.718;2023-07-24T13:18:17;24.49;62.35
69324;DHT22;56470;47.350;8.718;2023-07-24T13:20:45;24.54;62.35
69324;DHT22;56470;47.350;8.718;2023-07-24T13:23:10;24.56;62.68
69324;DHT22;56470;47.350;8.718;2023-07-24T13:25:35;24.65;62.56
69324;DHT22;56470;47.350;8.718;2023-07-24T13:28:01;24.70;62.55
69324;DHT22;56470;47.350;8.718;2023-07-24T13:30:26;24.71;62.48
69324;DHT22;56470;47.350;8.718;2023-07-24T13:32:51;24.80;62.49
69324;DHT22;56470;47.350;8.718;2023-07-24T13:35:17;24.85;62.46
69324;DHT22;56470;47.350;8.718;2023-07-24T13:37:42;24.94;62.17
69324;DHT22;56470;47.350;8.718;2023-07-24T13:40:08;24.96;61.90
69324;DHT22;56470;47.350;8.718;2023-07-24T13:42:33;24.98;61.90
69324;DHT22;56470;47.350;8.718;2023-07-24T13:44:58;25.01;62.30
69324;DHT22;56470;47.350;8.718;2023-07-24T13:47:24;25.08;62.47
69324;DHT22;56470;47.350;8.718;2023-07-24T13:49:49;25.12;62.54
69324;DHT22;56470;47.350;8.718;2023-07-24T13:52:14;25.15;62.58
69324;DHT22;56470;47.350;8.718;2023-07-24T13:54:40;25.18;62.54
69324;DHT22;56470;47.350;8.718;2023-07-24T13:57:05;25.18;62.54
69324;DHT22;56470;47.350;8.718;2023-07-24T13:59:33;25.22;62.55
69324;DHT22;56470;47.350;8.718;2023-07-24T14:01:59;25.29;62.52
69324;DHT22;56470;47.350;8.718;2023-07-24T14:04:24;25.32;62.46
69324;DHT22;56470;47.350;8.718;2023-07-24T14:06:49;25.36;62.35
69324;DHT22;56470;47.350;8.718;2023-07-24T14:09:14;25.39;62.34
69324;DHT22;56470;47.350;8.718;2023-07-24T14:11:40;25.37;62.26
69324;DHT22;56470;47.350;8.718;2023-07-24T14:14:06;25.37;62.36
69324;DHT22;56470;47.350;8.718;2023-07-24T14:16:31;25.35;62.34
69324;DHT22;56470;47.350;8.718;2023-07-24T14:18:56;25.33;62.39
69324;DHT22;56470;47.350;8.718;2023-07-24T14:21:21;25.33;62.54
69324;DHT22;56470;47.350;8.718;2023-07-24T14:23:47;25.33;62.62
69324;DHT22;56470;47.350;8.718;2023-07-24T14:26:12;25.29;62.82
69324;DHT22;56470;47.350;8.718;2023-07-24T14:28:37;25.30;63.10
69324;DHT22;56470;47.350;8.718;2023-07-24T14:31:02;25.27;63.39
69324;DHT22;56470;47.350;8.718;2023-07-24T14:33:29;25.25;63.78
69324;DHT22;56470;47.350;8.718;2023-07-24T14:35:55;25.22;64.07
69324;DHT22;56470;47.350;8.718;2023-07-24T14:38:20;25.20;64.28
69324;DHT22;56470;47.350;8.718;2023-07-24T14:40:45;25.22;64.59
69324;DHT22;56470;47.350;8.718;2023-07-24T14:43:11;25.19;64.50
69324;DHT22;56470;47.350;8.718;2023-07-24T14:45:36;25.20;64.75
69324;DHT22;56470;47.350;8.718;2023-07-24T14:48:01;25.18;65.18
69324;DHT22;56470;47.350;8.718;2023-07-24T14:50:27;25.19;65.33
69324;DHT22;56470;47.350;8.718;2023-07-24T14:52:52;25.20;65.48
69324;DHT22;56470;47.350;8.718;2023-07-24T14:55:17;25.19;65.60
69324;DHT22;56470;47.350;8.718;2023-07-24T14:57:43;25.15;65.62
69324;DHT22;56470;47.350;8.718;2023-07-24T15:00:09;25.15;65.65
69324;DHT22;56470;47.350;8.718;2023-07-24T15:02:35;25.11;65.80
69324;DHT22;56470;47.350;8.718;2023-07-24T15:05:00;24.99;65.66
69324;DHT22;56470;47.350;8.718;2023-07-24T15:07:25;24.88;65.45
69324;DHT22;56470;47.350;8.718;2023-07-24T15:09:51;24.82;65.73
69324;DHT22;56470;47.350;8.718;2023-07-24T15:12:16;24.80;65.66
69324;DHT22;56470;47.350;8.718;2023-07-24T15:14:41;24.75;65.75
69324;DHT22;56470;47.350;8.718;2023-07-24T15:17:07;24.64;65.76
69324;DHT22;56470;47.350;8.718;2023-07-24T15:19:32;24.52;65.57
69324;DHT22;56470;47.350;8.718;2023-07-24T15:21:57;24.44;65.48
69324;DHT22;56470;47.350;8.718;2023-07-24T15:24:23;24.44;65.54
69324;DHT22;56470;47.350;8.718;2023-07-24T15:26:48;24.43;65.38
69324;DHT22;56470;47.350;8.718;2023-07-24T15:29:14;24.44;65.09